Time;durP1;ratioP1;P1;durP2;ratioP2;P2;SDS_P1;SDS_P2;PMS_P1;PMS_P2;Temp;Humidity;BMP_temperature;BMP_pressure;BME280_temperature;BME280_humidity;BME280_pressure;Samples;Min_cycle;Max_cycle;Signal;HPM_P1;HPM_P2
2019/08/16 00:02:01;;;;;;;2.53;1.86;;;;;;;22.29;55.41;100774.06;;;;-54
2019/08/16 00:05:00;;;;;;;2.03;1.75;;;;;;;22.29;55.43;100776.86;;;;-54
2019/08/16 00:08:00;;;;;;;2.31;1.81;;;;;;;22.28;55.44;100782.10;;;;-54
2019/08/16 00:11:00;;;;;;;2.06;1.74;;;;;;;22.28;55.44;100784.89;;;;-53
2019/08/16 00:14:00;;;;;;;2.17;1.93;;;;;;;22.29;55.44;100780.02;;;;-53
2019/08/16 00:17:00;;;;;;;3.29;1.97;;;;;;;22.28;55.46;100776.27;;;;-54
2019/08/16 00:20:00;;;;;;;3.51;1.81;;;;;;;22.28;55.42;100780.81;;;;-54
2019/08/16 00:23:00;;;;;;;3.23;1.81;;;;;;;22.27;55.39;100779.03;;;;-53
2019/08/16 00:26:00;;;;;;;2.61;1.82;;;;;;;22.27;55.41;100780.55;;;;-52
2019/08/16 00:29:00;;;;;;;2.21;1.72;;;;;;;22.27;55.41;100785.49;;;;-52
2019/08/16 00:32:00;;;;;;;2.49;1.75;;;;;;;22.26;55.44;100784.55;;;;-52
2019/08/16 00:35:00;;;;;;;2.56;1.79;;;;;;;22.26;55.40;100785.05;;;;-52
2019/08/16 00:38:00;;;;;;;2.30;1.78;;;;;;;22.26;55.42;100779.84;;;;-52
2019/08/16 00:41:00;;;;;;;2.33;1.87;;;;;;;22.26;55.42;100786.56;;;;-54
2019/08/16 00:44:00;;;;;;;2.85;1.87;;;;;;;22.25;55.46;100787.03;;;;-54
2019/08/16 00:47:00;;;;;;;2.41;1.73;;;;;;;22.25;55.46;100789.39;;;;-54
2019/08/16 00:50:00;;;;;;;2.05;1.79;;;;;;;22.25;55.44;100792.25;;;;-54
2019/08/16 00:53:00;;;;;;;3.45;1.65;;;;;;;22.25;55.47;100794.44;;;;-54
2019/08/16 00:56:00;;;;;;;2.36;1.71;;;;;;;22.24;55.46;100792.21;;;;-53
2019/08/16 00:59:00;;;;;;;1.77;1.65;;;;;;;22.24;55.46;100790.53;;;;-54
2019/08/16 01:02:00;;;;;;;2.81;1.73;;;;;;;22.23;55.49;100792.68;;;;-54
2019/08/16 01:05:00;;;;;;;3.21;1.76;;;;;;;22.24;55.41;100789.95;;;;-54
2019/08/16 01:08:00;;;;;;;1.71;1.59;;;;;;;22.24;55.44;100790.09;;;;-54
2019/08/16 01:11:00;;;;;;;2.03;1.60;;;;;;;22.23;55.46;100791.06;;;;-53
2019/08/16 01:14:00;;;;;;;2.21;1.61;;;;;;;22.22;55.41;100795.67;;;;-54
2019/08/16 01:17:00;;;;;;;2.43;1.81;;;;;;;22.23;55.41;100796.72;;;;-53
2019/08/16 01:20:00;;;;;;;2.34;1.70;;;;;;;22.22;55.47;100798.29;;;;-54
2019/08/16 01:23:11;;;;;;;1.70;1.60;;;;;;;22.23;55.45;100803.04;;;;-53
2019/08/16 01:26:00;;;;;;;2.36;1.68;;;;;;;22.22;55.44;100796.00;;;;-54
2019/08/16 01:29:04;;;;;;;2.07;1.63;;;;;;;22.22;55.51;100797.58;;;;-54
2019/08/16 01:32:07;;;;;;;1.91;1.70;;;;;;;22.22;55.49;100800.78;;;;-53
2019/08/16 01:35:10;;;;;;;1.85;1.67;;;;;;;22.21;55.52;100805.31;;;;-54
2019/08/16 01:38:00;;;;;;;2.02;1.54;;;;;;;22.21;55.43;100808.02;;;;-54
2019/08/16 01:41:00;;;;;;;1.82;1.67;;;;;;;22.21;55.46;100801.08;;;;-54
2019/08/16 01:44:00;;;;;;;1.75;1.52;;;;;;;22.21;55.49;100800.06;;;;-54
2019/08/16 01:47:00;;;;;;;2.19;1.59;;;;;;;22.20;55.46;100798.83;;;;-53
2019/08/16 01:50:00;;;;;;;1.87;1.61;;;;;;;22.20;55.44;100802.92;;;;-54
2019/08/16 01:53:00;;;;;;;2.13;1.62;;;;;;;22.19;55.47;100801.77;;;;-54
2019/08/16 01:56:00;;;;;;;2.39;1.69;;;;;;;22.19;55.48;100799.52;;;;-54
2019/08/16 01:59:00;;;;;;;1.71;1.61;;;;;;;22.19;55.43;100800.19;;;;-54
2019/08/16 02:02:00;;;;;;;2.09;1.66;;;;;;;22.19;55.47;100798.78;;;;-54
2019/08/16 02:05:00;;;;;;;1.85;1.51;;;;;;;22.19;55.51;100800.87;;;;-53
2019/08/16 02:08:00;;;;;;;2.77;1.69;;;;;;;22.19;55.50;100799.66;;;;-54
2019/08/16 02:11:00;;;;;;;1.97;1.71;;;;;;;22.19;55.46;100801.44;;;;-53
2019/08/16 02:14:00;;;;;;;2.03;1.66;;;;;;;22.19;55.45;100797.63;;;;-55
2019/08/16 02:17:00;;;;;;;2.06;1.63;;;;;;;22.19;55.42;100795.72;;;;-54
2019/08/16 02:20:00;;;;;;;1.60;1.50;;;;;;;22.18;55.49;100797.02;;;;-54
2019/08/16 02:23:00;;;;;;;2.31;1.67;;;;;;;22.18;55.44;100804.59;;;;-55
2019/08/16 02:26:00;;;;;;;1.77;1.40;;;;;;;22.18;55.49;100806.34;;;;-54
2019/08/16 02:29:00;;;;;;;1.97;1.70;;;;;;;22.17;55.45;100801.56;;;;-54
2019/08/16 02:32:00;;;;;;;2.17;1.48;;;;;;;22.18;55.45;100796.75;;;;-54
2019/08/16 02:35:00;;;;;;;1.80;1.45;;;;;;;22.16;55.51;100793.95;;;;-54
2019/08/16 02:38:00;;;;;;;1.93;1.47;;;;;;;22.18;55.42;100798.94;;;;-54
2019/08/16 02:41:00;;;;;;;1.90;1.61;;;;;;;22.17;55.44;100800.86;;;;-55
2019/08/16 02:44:00;;;;;;;1.99;1.50;;;;;;;22.18;55.47;100796.59;;;;-54
2019/08/16 02:47:00;;;;;;;2.05;1.63;;;;;;;22.16;55.45;100793.18;;;;-54
2019/08/16 02:49:59;;;;;;;1.87;1.50;;;;;;;22.17;55.49;100794.02;;;;-54
2019/08/16 02:53:00;;;;;;;2.45;1.67;;;;;;;22.16;55.50;100787.80;;;;-55
2019/08/16 02:56:00;;;;;;;1.70;1.60;;;;;;;22.16;55.43;100788.53;;;;-54
2019/08/16 02:59:00;;;;;;;1.73;1.56;;;;;;;22.16;55.51;100785.74;;;;-54
2019/08/16 03:02:52;;;;;;;2.17;1.50;;;;;;;22.15;55.50;100782.81;;;;-54
2019/08/16 03:06:49;;;;;;;1.57;1.47;;;;;;;22.16;55.48;100775.48;;;;-54
2019/08/16 03:10:00;;;;;;;1.70;1.49;;;;;;;22.14;55.47;100772.08;;;;-54
2019/08/16 03:13:00;;;;;;;1.69;1.57;;;;;;;22.14;55.48;100766.92;;;;-54
2019/08/16 03:16:00;;;;;;;1.62;1.52;;;;;;;22.14;55.49;100770.90;;;;-53
2019/08/16 03:19:00;;;;;;;2.53;1.71;;;;;;;22.15;55.48;100773.69;;;;-54
2019/08/16 03:22:00;;;;;;;1.80;1.49;;;;;;;22.15;55.45;100780.36;;;;-54
2019/08/16 03:24:59;;;;;;;1.57;1.47;;;;;;;22.14;55.44;100785.70;;;;-54
2019/08/16 03:28:00;;;;;;;2.54;1.60;;;;;;;22.15;55.46;100789.67;;;;-54
2019/08/16 03:31:00;;;;;;;1.95;1.61;;;;;;;22.14;55.47;100788.39;;;;-53
2019/08/16 03:35:00;;;;;;;2.20;1.63;;;;;;;22.14;55.45;100793.17;;;;-53
2019/08/16 03:38:00;;;;;;;1.83;1.50;;;;;;;22.14;55.39;100797.98;;;;-54
2019/08/16 03:40:59;;;;;;;1.60;1.50;;;;;;;22.14;55.46;100804.38;;;;-54
2019/08/16 03:44:00;;;;;;;1.66;1.50;;;;;;;22.14;55.47;100808.41;;;;-54
2019/08/16 03:47:00;;;;;;;2.41;1.51;;;;;;;22.13;55.37;100807.53;;;;-54
2019/08/16 03:50:00;;;;;;;1.61;1.51;;;;;;;22.13;55.38;100807.36;;;;-54
2019/08/16 03:53:00;;;;;;;1.78;1.56;;;;;;;22.12;55.45;100810.52;;;;-55
2019/08/16 03:56:00;;;;;;;1.65;1.55;;;;;;;22.13;55.42;100817.35;;;;-54
2019/08/16 03:59:00;;;;;;;1.77;1.37;;;;;;;22.13;55.45;100823.17;;;;-54
2019/08/16 04:02:00;;;;;;;1.71;1.50;;;;;;;22.13;55.47;100823.51;;;;-54
2019/08/16 04:05:00;;;;;;;1.67;1.55;;;;;;;22.13;55.43;100826.38;;;;-54
2019/08/16 04:08:00;;;;;;;1.80;1.47;;;;;;;22.12;55.44;100822.12;;;;-54
2019/08/16 04:11:00;;;;;;;1.87;1.45;;;;;;;22.12;55.44;100827.91;;;;-54
2019/08/16 04:14:00;;;;;;;2.23;1.62;;;;;;;22.12;55.44;100839.86;;;;-54
2019/08/16 04:21:06;;;;;;;1.71;1.47;;;;;;;22.11;55.42;100833.76;;;;-54
2019/08/16 04:24:06;;;;;;;1.63;1.49;;;;;;;22.12;55.44;100831.38;;;;-55
2019/08/16 04:27:00;;;;;;;1.75;1.59;;;;;;;22.11;55.42;100840.16;;;;-54
2019/08/16 04:29:59;;;;;;;1.69;1.59;;;;;;;22.10;55.42;100834.94;;;;-54
2019/08/16 04:32:59;;;;;;;1.69;1.55;;;;;;;22.10;55.44;100828.60;;;;-54
2019/08/16 04:35:59;;;;;;;1.63;1.42;;;;;;;22.10;55.43;100833.25;;;;-54
2019/08/16 04:38:59;;;;;;;1.74;1.50;;;;;;;22.10;55.44;100832.92;;;;-55
2019/08/16 04:41:59;;;;;;;1.84;1.59;;;;;;;22.10;55.43;100834.83;;;;-54
2019/08/16 04:44:59;;;;;;;1.59;1.49;;;;;;;22.09;55.49;100831.59;;;;-54
2019/08/16 04:47:59;;;;;;;1.67;1.57;;;;;;;22.10;55.46;100831.63;;;;-55
2019/08/16 04:50:59;;;;;;;1.63;1.42;;;;;;;22.09;55.45;100828.17;;;;-54
2019/08/16 04:53:59;;;;;;;1.60;1.50;;;;;;;22.11;55.45;100835.54;;;;-53
2019/08/16 04:56:59;;;;;;;1.76;1.51;;;;;;;22.09;55.48;100838.73;;;;-53
2019/08/16 05:00:00;;;;;;;1.75;1.49;;;;;;;22.10;55.45;100838.27;;;;-54
2019/08/16 05:02:59;;;;;;;2.00;1.51;;;;;;;22.09;55.46;100841.63;;;;-55
2019/08/16 05:05:59;;;;;;;1.71;1.50;;;;;;;22.10;55.47;100845.66;;;;-54
2019/08/16 05:08:59;;;;;;;2.01;1.50;;;;;;;22.09;55.51;100844.95;;;;-54
2019/08/16 05:11:59;;;;;;;1.72;1.51;;;;;;;22.08;55.48;100846.46;;;;-54
2019/08/16 05:14:59;;;;;;;1.58;1.47;;;;;;;22.09;55.53;100854.20;;;;-54
2019/08/16 05:17:59;;;;;;;1.48;1.38;;;;;;;22.08;55.48;100854.20;;;;-54
2019/08/16 05:20:59;;;;;;;1.61;1.51;;;;;;;22.08;55.55;100854.88;;;;-54
2019/08/16 05:23:59;;;;;;;1.57;1.47;;;;;;;22.09;55.52;100857.50;;;;-55
2019/08/16 05:26:59;;;;;;;1.51;1.39;;;;;;;22.08;55.54;100859.38;;;;-54
2019/08/16 05:29:59;;;;;;;1.57;1.47;;;;;;;22.08;55.51;100858.87;;;;-54
2019/08/16 05:32:59;;;;;;;1.53;1.41;;;;;;;22.08;55.50;100869.73;;;;-54
2019/08/16 05:35:59;;;;;;;2.19;1.41;;;;;;;22.08;55.54;100867.55;;;;-54
2019/08/16 05:38:59;;;;;;;1.49;1.39;;;;;;;22.08;55.55;100868.90;;;;-55
2019/08/16 05:41:59;;;;;;;1.57;1.40;;;;;;;22.08;55.54;100870.64;;;;-55
2019/08/16 05:44:59;;;;;;;1.42;1.32;;;;;;;22.07;55.56;100872.12;;;;-54
2019/08/16 05:47:59;;;;;;;1.54;1.39;;;;;;;22.07;55.53;100874.91;;;;-53
2019/08/16 05:51:02;;;;;;;1.67;1.49;;;;;;;22.07;55.55;100878.61;;;;-51
2019/08/16 05:54:00;;;;;;;1.63;1.53;;;;;;;22.07;55.54;100879.12;;;;-52
2019/08/16 05:56:59;;;;;;;1.61;1.50;;;;;;;22.07;55.61;100879.95;;;;-52
2019/08/16 05:59:59;;;;;;;1.77;1.56;;;;;;;22.07;55.51;100887.77;;;;-52
2019/08/16 06:02:59;;;;;;;1.30;1.20;;;;;;;22.06;55.58;100888.77;;;;-52
2019/08/16 06:05:59;;;;;;;1.61;1.50;;;;;;;22.06;55.58;100891.13;;;;-52
2019/08/16 06:08:59;;;;;;;1.40;1.30;;;;;;;22.06;55.61;100895.90;;;;-52
2019/08/16 06:11:59;;;;;;;1.41;1.31;;;;;;;22.06;55.59;100897.41;;;;-52
2019/08/16 06:14:59;;;;;;;1.58;1.41;;;;;;;22.06;55.61;100903.63;;;;-52
2019/08/16 06:17:59;;;;;;;1.45;1.35;;;;;;;22.06;55.59;100901.72;;;;-52
2019/08/16 06:20:59;;;;;;;1.54;1.44;;;;;;;22.06;55.62;100897.30;;;;-51
2019/08/16 06:23:59;;;;;;;1.48;1.37;;;;;;;22.06;55.59;100903.40;;;;-52
2019/08/16 06:26:59;;;;;;;1.50;1.40;;;;;;;22.07;55.67;100906.94;;;;-52
2019/08/16 06:29:59;;;;;;;1.47;1.33;;;;;;;22.06;55.61;100908.52;;;;-52
2019/08/16 06:32:59;;;;;;;1.49;1.39;;;;;;;22.06;55.59;100910.30;;;;-52
2019/08/16 06:35:59;;;;;;;1.51;1.37;;;;;;;22.06;55.59;100904.70;;;;-54
2019/08/16 06:38:59;;;;;;;1.50;1.40;;;;;;;22.05;55.62;100909.66;;;;-52
2019/08/16 06:41:59;;;;;;;1.40;1.30;;;;;;;22.05;55.62;100909.71;;;;-52
2019/08/16 06:44:59;;;;;;;1.32;1.22;;;;;;;22.05;55.55;100908.91;;;;-52
2019/08/16 06:47:59;;;;;;;1.40;1.30;;;;;;;22.05;55.63;100912.44;;;;-52
2019/08/16 06:50:59;;;;;;;1.46;1.36;;;;;;;22.06;55.60;100909.69;;;;-52
2019/08/16 06:53:59;;;;;;;1.50;1.40;;;;;;;22.05;55.64;100914.46;;;;-52
2019/08/16 06:56:59;;;;;;;1.40;1.30;;;;;;;22.05;55.58;100911.94;;;;-52
2019/08/16 06:59:59;;;;;;;1.47;1.37;;;;;;;22.05;55.64;100909.38;;;;-52
2019/08/16 07:02:59;;;;;;;1.36;1.26;;;;;;;22.04;55.64;100903.38;;;;-52
2019/08/16 07:05:59;;;;;;;1.61;1.34;;;;;;;22.04;55.63;100905.67;;;;-52
2019/08/16 07:08:59;;;;;;;1.53;1.33;;;;;;;22.04;55.63;100906.69;;;;-55
2019/08/16 07:11:59;;;;;;;1.45;1.35;;;;;;;22.05;55.63;100914.97;;;;-54
2019/08/16 07:14:59;;;;;;;1.38;1.27;;;;;;;22.04;55.60;100912.97;;;;-53
2019/08/16 07:17:59;;;;;;;1.30;1.20;;;;;;;22.04;55.61;100917.17;;;;-54
2019/08/16 07:20:59;;;;;;;1.30;1.20;;;;;;;22.04;55.63;100917.34;;;;-56
2019/08/16 07:23:59;;;;;;;1.48;1.37;;;;;;;22.04;55.63;100911.73;;;;-53
2019/08/16 07:26:59;;;;;;;1.50;1.40;;;;;;;22.04;55.59;100907.52;;;;-54
2019/08/16 07:29:59;;;;;;;1.37;1.27;;;;;;;22.04;55.62;100909.55;;;;-54
2019/08/16 07:32:59;;;;;;;1.37;1.27;;;;;;;22.04;55.59;100905.57;;;;-54
2019/08/16 07:35:59;;;;;;;1.30;1.20;;;;;;;22.04;55.63;100908.33;;;;-53
2019/08/16 07:39:59;;;;;;;1.40;1.30;;;;;;;22.04;55.67;100905.73;;;;-54
2019/08/16 07:44:59;;;;;;;7.30;1.93;;;;;;;21.99;55.23;100901.56;;;;-55
2019/08/16 07:49:59;;;;;;;7.51;2.69;;;;;;;21.95;52.81;100899.02;;;;-53
2019/08/16 07:52:59;;;;;;;7.53;2.80;;;;;;;21.91;52.96;100898.34;;;;-49
2019/08/16 07:55:59;;;;;;;6.23;2.64;;;;;;;21.89;52.94;100894.19;;;;-53
2019/08/16 07:58:59;;;;;;;6.35;3.10;;;;;;;21.82;53.10;100895.34;;;;-59
2019/08/16 08:01:59;;;;;;;7.95;3.13;;;;;;;21.82;53.42;100888.55;;;;-50
2019/08/16 08:04:59;;;;;;;5.35;2.73;;;;;;;21.78;53.68;100883.73;;;;-49
2019/08/16 08:07:59;;;;;;;8.97;2.84;;;;;;;21.75;54.09;100886.64;;;;-51
2019/08/16 08:10:59;;;;;;;4.79;2.65;;;;;;;21.77;54.29;100885.98;;;;-57
2019/08/16 08:13:59;;;;;;;5.65;2.69;;;;;;;21.80;54.15;100880.63;;;;-56
2019/08/16 08:16:59;;;;;;;5.27;2.79;;;;;;;21.82;54.22;100881.66;;;;-57
2019/08/16 08:19:59;;;;;;;5.13;2.54;;;;;;;21.84;54.38;100879.34;;;;-56
2019/08/16 08:22:59;;;;;;;8.45;3.08;;;;;;;21.85;54.40;100875.36;;;;-56
2019/08/16 08:25:59;;;;;;;6.88;2.71;;;;;;;21.86;54.50;100872.74;;;;-57
2019/08/16 08:28:59;;;;;;;4.57;2.49;;;;;;;21.87;54.51;100875.37;;;;-57
2019/08/16 08:31:59;;;;;;;4.91;2.54;;;;;;;21.88;54.52;100873.63;;;;-57
2019/08/16 08:34:59;;;;;;;6.07;2.73;;;;;;;21.88;54.58;100866.83;;;;-57
2019/08/16 08:37:59;;;;;;;4.31;2.29;;;;;;;21.88;54.55;100865.83;;;;-57
2019/08/16 08:40:59;;;;;;;5.38;2.65;;;;;;;21.90;54.61;100861.53;;;;-56
2019/08/16 08:43:59;;;;;;;4.61;2.45;;;;;;;21.90;54.65;100858.01;;;;-56
2019/08/16 08:46:59;;;;;;;4.87;2.44;;;;;;;21.90;54.68;100857.57;;;;-51
2019/08/16 08:49:59;;;;;;;3.69;2.35;;;;;;;21.90;54.70;100854.98;;;;-51
2019/08/16 08:52:59;;;;;;;4.79;2.28;;;;;;;21.91;54.71;100851.32;;;;-51
2019/08/16 08:55:59;;;;;;;3.60;2.31;;;;;;;21.92;54.70;100853.27;;;;-51
2019/08/16 08:58:59;;;;;;;2.75;2.14;;;;;;;21.91;54.76;100846.72;;;;-52
2019/08/16 09:01:59;;;;;;;3.51;2.24;;;;;;;21.92;54.74;100844.47;;;;-51
2019/08/16 09:04:59;;;;;;;3.97;2.36;;;;;;;21.92;54.79;100839.02;;;;-51
2019/08/16 09:07:59;;;;;;;4.04;2.45;;;;;;;21.92;54.78;100837.07;;;;-51
2019/08/16 09:10:59;;;;;;;3.99;2.23;;;;;;;21.93;54.82;100830.05;;;;-52
2019/08/16 09:13:59;;;;;;;3.94;2.29;;;;;;;21.93;54.74;100824.23;;;;-51
2019/08/16 09:16:59;;;;;;;3.40;2.31;;;;;;;21.94;54.81;100819.28;;;;-51
2019/08/16 09:19:59;;;;;;;4.12;2.31;;;;;;;21.94;54.81;100823.32;;;;-52
2019/08/16 09:22:59;;;;;;;4.73;2.27;;;;;;;21.93;54.83;100819.34;;;;-52
2019/08/16 09:25:59;;;;;;;4.17;2.50;;;;;;;21.94;54.88;100811.88;;;;-52
2019/08/16 09:28:59;;;;;;;3.68;2.40;;;;;;;21.94;54.80;100812.33;;;;-51
2019/08/16 09:31:59;;;;;;;3.85;2.35;;;;;;;21.94;54.84;100811.05;;;;-51
2019/08/16 09:38:15;;;;;;;3.91;2.42;;;;;;;21.94;54.88;100812.16;;;;-56
2019/08/16 09:41:15;;;;;;;3.16;2.18;;;;;;;21.93;54.92;100809.80;;;;-56
2019/08/16 09:44:15;;;;;;;3.19;2.17;;;;;;;21.94;54.90;100814.41;;;;-56
2019/08/16 09:47:15;;;;;;;3.65;2.26;;;;;;;21.94;54.98;100805.03;;;;-56
2019/08/16 09:50:15;;;;;;;3.29;2.15;;;;;;;21.94;54.89;100804.31;;;;-56
2019/08/16 09:53:15;;;;;;;4.17;2.31;;;;;;;21.94;55.00;100801.77;;;;-56
2019/08/16 09:56:15;;;;;;;3.44;2.27;;;;;;;21.94;55.03;100798.88;;;;-56
2019/08/16 09:59:15;;;;;;;4.27;2.35;;;;;;;21.94;54.98;100793.93;;;;-56
2019/08/16 10:02:15;;;;;;;2.53;2.07;;;;;;;21.94;54.90;100793.36;;;;-56
2019/08/16 10:05:15;;;;;;;2.64;2.01;;;;;;;21.94;54.92;100792.02;;;;-56
2019/08/16 10:08:15;;;;;;;3.22;2.29;;;;;;;21.95;55.00;100789.22;;;;-56
2019/08/16 10:11:15;;;;;;;4.07;2.03;;;;;;;21.95;54.96;100783.61;;;;-57
2019/08/16 10:14:15;;;;;;;3.08;1.97;;;;;;;21.95;54.98;100783.27;;;;-56
2019/08/16 10:17:15;;;;;;;3.44;2.20;;;;;;;21.95;54.96;100782.47;;;;-56
2019/08/16 10:20:15;;;;;;;3.03;2.11;;;;;;;21.94;54.96;100778.89;;;;-56
2019/08/16 10:23:15;;;;;;;3.35;2.14;;;;;;;21.96;55.01;100773.80;;;;-56
2019/08/16 10:26:15;;;;;;;3.42;2.34;;;;;;;21.95;55.03;100778.66;;;;-56
2019/08/16 10:29:15;;;;;;;2.63;2.04;;;;;;;21.95;54.96;100780.78;;;;-56
2019/08/16 10:32:15;;;;;;;3.52;2.09;;;;;;;21.95;55.01;100776.71;;;;-56
2019/08/16 10:35:15;;;;;;;3.23;2.21;;;;;;;21.95;55.02;100770.93;;;;-56
2019/08/16 10:38:15;;;;;;;2.29;2.00;;;;;;;21.95;55.05;100764.33;;;;-56
2019/08/16 10:41:15;;;;;;;3.11;2.10;;;;;;;21.95;54.99;100766.95;;;;-56
2019/08/16 10:44:15;;;;;;;2.88;2.11;;;;;;;21.95;54.96;100761.34;;;;-57
2019/08/16 10:47:15;;;;;;;3.11;2.07;;;;;;;21.96;55.01;100765.21;;;;-57
2019/08/16 10:50:15;;;;;;;4.60;2.13;;;;;;;21.95;55.05;100749.34;;;;-56
2019/08/16 10:53:15;;;;;;;2.55;1.93;;;;;;;21.95;55.04;100749.41;;;;-56
2019/08/16 10:56:15;;;;;;;2.78;2.06;;;;;;;21.96;55.07;100752.44;;;;-56
2019/08/16 10:59:15;;;;;;;3.31;2.11;;;;;;;21.95;55.08;100745.43;;;;-56
2019/08/16 11:02:15;;;;;;;2.57;2.07;;;;;;;21.96;55.11;100749.23;;;;-56
2019/08/16 11:05:15;;;;;;;2.51;1.99;;;;;;;21.95;55.04;100741.77;;;;-56
2019/08/16 11:08:15;;;;;;;3.03;1.89;;;;;;;21.96;55.04;100744.02;;;;-56
2019/08/16 11:11:15;;;;;;;2.32;1.90;;;;;;;21.95;55.01;100737.90;;;;-56
2019/08/16 11:14:15;;;;;;;2.32;2.03;;;;;;;21.95;55.08;100738.91;;;;-56
2019/08/16 11:17:15;;;;;;;2.36;1.88;;;;;;;21.96;55.05;100736.62;;;;-57
2019/08/16 11:20:15;;;;;;;2.15;1.91;;;;;;;21.95;55.06;100738.91;;;;-56
2019/08/16 11:23:15;;;;;;;1.87;1.77;;;;;;;21.96;55.08;100730.57;;;;-56
2019/08/16 11:26:15;;;;;;;2.09;1.88;;;;;;;21.96;55.07;100732.25;;;;-56
2019/08/16 11:29:15;;;;;;;2.32;1.81;;;;;;;21.96;55.06;100729.77;;;;-56
2019/08/16 11:32:15;;;;;;;2.26;1.97;;;;;;;21.96;55.11;100725.56;;;;-56
2019/08/16 11:35:15;;;;;;;3.21;1.90;;;;;;;21.97;55.06;100718.00;;;;-56
2019/08/16 11:38:15;;;;;;;2.55;1.89;;;;;;;21.97;55.07;100720.99;;;;-55
2019/08/16 11:41:32;;;;;;;2.45;1.85;;;;;;;21.96;55.12;100717.45;;;;-56
2019/08/16 11:44:19;;;;;;;2.13;1.93;;;;;;;21.97;55.09;100720.95;;;;-56
2019/08/16 11:47:20;;;;;;;2.23;1.90;;;;;;;21.96;55.09;100712.01;;;;-57
2019/08/16 11:50:20;;;;;;;2.63;1.93;;;;;;;21.95;55.07;100715.03;;;;-56
2019/08/16 11:53:15;;;;;;;2.03;1.80;;;;;;;21.96;55.06;100713.62;;;;-56
2019/08/16 11:56:15;;;;;;;8.11;2.11;;;;;;;21.96;55.20;100711.87;;;;-54
2019/08/16 11:59:15;;;;;;;2.37;1.80;;;;;;;21.98;55.20;100711.34;;;;-55
2019/08/16 12:02:15;;;;;;;2.43;1.70;;;;;;;22.00;55.30;100711.16;;;;-54
2019/08/16 12:05:15;;;;;;;2.12;1.83;;;;;;;22.02;55.25;100709.38;;;;-56
2019/08/16 12:08:15;;;;;;;6.07;2.06;;;;;;;22.03;55.36;100707.66;;;;-56
2019/08/16 12:11:15;;;;;;;3.78;2.01;;;;;;;22.04;55.37;100705.92;;;;-56
2019/08/16 12:14:15;;;;;;;2.71;1.97;;;;;;;22.06;55.28;100702.97;;;;-56
2019/08/16 12:17:15;;;;;;;3.26;1.87;;;;;;;22.06;55.30;100697.31;;;;-56
2019/08/16 12:20:15;;;;;;;3.94;2.06;;;;;;;22.07;55.18;100701.66;;;;-56
2019/08/16 12:23:15;;;;;;;2.36;1.91;;;;;;;22.07;55.21;100695.84;;;;-56
2019/08/16 12:26:15;;;;;;;2.89;1.79;;;;;;;22.08;55.16;100693.53;;;;-56
2019/08/16 12:29:15;;;;;;;3.67;1.92;;;;;;;22.09;55.12;100691.64;;;;-56
2019/08/16 12:32:15;;;;;;;4.61;1.90;;;;;;;22.08;55.15;100691.37;;;;-56
2019/08/16 12:35:15;;;;;;;2.63;1.84;;;;;;;22.09;55.01;100690.64;;;;-56
2019/08/16 12:38:15;;;;;;;6.43;2.21;;;;;;;22.10;55.18;100686.41;;;;-57
2019/08/16 12:41:15;;;;;;;3.33;1.81;;;;;;;22.11;55.17;100682.73;;;;-50
2019/08/16 12:44:15;;;;;;;4.32;1.83;;;;;;;22.14;55.21;100685.44;;;;-52
2019/08/16 12:47:15;;;;;;;3.19;1.87;;;;;;;22.15;55.26;100685.44;;;;-52
2019/08/16 12:50:15;;;;;;;3.35;1.81;;;;;;;22.16;55.39;100680.80;;;;-51
2019/08/16 12:53:15;;;;;;;2.85;2.09;;;;;;;22.18;55.38;100676.34;;;;-48
2019/08/16 12:56:15;;;;;;;2.85;2.01;;;;;;;22.20;55.36;100678.23;;;;-51
2019/08/16 12:59:15;;;;;;;5.15;1.80;;;;;;;22.20;55.39;100669.14;;;;-51
2019/08/16 13:02:15;;;;;;;4.65;1.99;;;;;;;22.20;55.48;100672.78;;;;-51
2019/08/16 13:05:15;;;;;;;2.94;2.00;;;;;;;22.22;55.29;100669.99;;;;-51
2019/08/16 13:08:15;;;;;;;5.19;2.05;;;;;;;22.22;55.38;100668.64;;;;-51
2019/08/16 13:11:15;;;;;;;3.23;2.01;;;;;;;22.22;55.32;100668.64;;;;-56
2019/08/16 13:14:15;;;;;;;4.57;2.07;;;;;;;22.22;55.26;100658.78;;;;-55
2019/08/16 13:17:15;;;;;;;4.71;1.79;;;;;;;22.22;55.21;100660.06;;;;-56
2019/08/16 13:20:15;;;;;;;2.96;1.95;;;;;;;22.22;55.22;100661.00;;;;-55
2019/08/16 13:23:15;;;;;;;8.43;2.13;;;;;;;22.22;55.25;100657.03;;;;-56
2019/08/16 13:26:15;;;;;;;5.10;2.13;;;;;;;22.21;55.31;100648.28;;;;-54
2019/08/16 13:29:15;;;;;;;8.69;2.38;;;;;;;22.22;55.38;100649.97;;;;-57
2019/08/16 13:32:15;;;;;;;4.79;1.97;;;;;;;22.23;55.39;100645.36;;;;-57
2019/08/16 13:35:15;;;;;;;4.47;2.21;;;;;;;22.23;55.36;100645.23;;;;-58
2019/08/16 13:38:15;;;;;;;4.63;2.01;;;;;;;22.22;55.27;100641.05;;;;-56
2019/08/16 13:41:15;;;;;;;5.85;1.99;;;;;;;22.25;55.27;100638.91;;;;-56
2019/08/16 13:44:15;;;;;;;7.87;2.18;;;;;;;22.25;55.33;100642.44;;;;-56
2019/08/16 13:47:15;;;;;;;7.51;2.07;;;;;;;22.25;55.30;100629.72;;;;-56
2019/08/16 13:50:15;;;;;;;3.87;2.07;;;;;;;22.25;55.27;100636.22;;;;-55
2019/08/16 13:53:15;;;;;;;5.05;2.10;;;;;;;22.25;55.29;100632.81;;;;-53
2019/08/16 13:56:15;;;;;;;7.90;2.48;;;;;;;22.26;55.36;100625.28;;;;-58
2019/08/16 13:59:15;;;;;;;6.54;2.16;;;;;;;22.28;55.37;100622.49;;;;-56
2019/08/16 14:02:15;;;;;;;5.96;2.13;;;;;;;22.30;55.45;100619.97;;;;-52
2019/08/16 14:05:15;;;;;;;6.00;2.34;;;;;;;22.32;55.63;100615.23;;;;-50
2019/08/16 14:08:15;;;;;;;6.92;2.19;;;;;;;22.33;55.66;100623.27;;;;-50
2019/08/16 14:11:15;;;;;;;9.55;2.32;;;;;;;22.34;55.67;100610.86;;;;-50
2019/08/16 14:14:15;;;;;;;9.13;2.25;;;;;;;22.35;55.62;100613.52;;;;-50
2019/08/16 14:17:15;;;;;;;5.69;2.20;;;;;;;22.36;55.60;100608.94;;;;-52
2019/08/16 14:20:15;;;;;;;5.65;2.29;;;;;;;22.37;55.73;100607.97;;;;-51
2019/08/16 14:23:15;;;;;;;6.01;2.33;;;;;;;22.39;55.79;100602.89;;;;-51
2019/08/16 14:26:15;;;;;;;5.29;2.17;;;;;;;22.40;55.82;100597.38;;;;-56
2019/08/16 14:29:15;;;;;;;6.83;2.10;;;;;;;22.41;55.79;100590.17;;;;-56
2019/08/16 14:32:15;;;;;;;7.58;2.30;;;;;;;22.42;55.96;100579.50;;;;-53
2019/08/16 14:35:15;;;;;;;8.19;2.38;;;;;;;22.43;56.04;100573.74;;;;-50
2019/08/16 14:38:15;;;;;;;6.25;2.35;;;;;;;22.43;56.03;100577.21;;;;-50
2019/08/16 14:41:15;;;;;;;3.47;2.21;;;;;;;22.45;55.90;100571.96;;;;-51
2019/08/16 14:44:15;;;;;;;6.45;2.11;;;;;;;22.46;55.97;100570.48;;;;-51
2019/08/16 14:47:15;;;;;;;4.63;2.13;;;;;;;22.47;55.94;100566.98;;;;-50
2019/08/16 14:50:15;;;;;;;5.73;2.19;;;;;;;22.47;55.91;100551.83;;;;-60
2019/08/16 14:53:15;;;;;;;6.88;2.29;;;;;;;22.48;55.84;100547.26;;;;-52
2019/08/16 14:56:15;;;;;;;5.08;1.90;;;;;;;22.49;55.82;100551.23;;;;-57
2019/08/16 14:59:15;;;;;;;4.63;2.09;;;;;;;22.50;55.80;100542.81;;;;-55
2019/08/16 15:02:15;;;;;;;7.67;2.46;;;;;;;22.50;55.79;100538.64;;;;-54
2019/08/16 15:05:15;;;;;;;4.83;2.09;;;;;;;22.51;55.74;100537.56;;;;-51
2019/08/16 15:08:15;;;;;;;5.25;2.20;;;;;;;22.52;55.79;100535.91;;;;-57
2019/08/16 15:11:15;;;;;;;8.35;2.15;;;;;;;22.52;55.74;100531.64;;;;-53
2019/08/16 15:14:15;;;;;;;9.44;2.35;;;;;;;22.52;55.81;100529.11;;;;-57
2019/08/16 15:17:15;;;;;;;4.96;2.29;;;;;;;22.54;55.75;100528.91;;;;-57
2019/08/16 15:20:15;;;;;;;5.82;2.25;;;;;;;22.55;55.68;100521.61;;;;-51
2019/08/16 15:23:15;;;;;;;4.86;2.09;;;;;;;22.54;55.65;100517.47;;;;-51
2019/08/16 15:26:15;;;;;;;6.48;2.21;;;;;;;22.54;55.71;100514.50;;;;-52
2019/08/16 15:29:15;;;;;;;4.19;2.13;;;;;;;22.53;55.67;100515.34;;;;-52
2019/08/16 15:32:15;;;;;;;3.76;1.93;;;;;;;22.52;55.69;100504.47;;;;-51
2019/08/16 15:35:15;;;;;;;5.88;2.09;;;;;;;22.51;55.70;100503.59;;;;-50
2019/08/16 15:38:15;;;;;;;5.19;2.16;;;;;;;22.51;55.62;100498.28;;;;-51
2019/08/16 15:41:15;;;;;;;6.65;2.35;;;;;;;22.53;55.66;100494.78;;;;-51
2019/08/16 15:44:15;;;;;;;8.23;2.33;;;;;;;22.54;55.69;100487.41;;;;-50
2019/08/16 15:47:15;;;;;;;5.26;2.07;;;;;;;22.54;55.57;100479.16;;;;-51
2019/08/16 15:50:15;;;;;;;6.10;2.28;;;;;;;22.54;55.59;100478.08;;;;-51
2019/08/16 15:53:15;;;;;;;7.66;2.22;;;;;;;22.55;55.67;100472.45;;;;-51
2019/08/16 15:56:15;;;;;;;4.01;1.99;;;;;;;22.55;55.58;100472.13;;;;-53
2019/08/16 15:59:15;;;;;;;5.94;2.17;;;;;;;22.55;55.78;100472.89;;;;-52
2019/08/16 16:02:15;;;;;;;5.51;1.99;;;;;;;22.54;55.75;100468.98;;;;-52
2019/08/16 16:05:15;;;;;;;3.45;1.98;;;;;;;22.55;55.63;100470.70;;;;-52
2019/08/16 16:08:15;;;;;;;4.55;2.19;;;;;;;22.54;55.56;100461.85;;;;-52
2019/08/16 16:11:15;;;;;;;4.36;2.10;;;;;;;22.54;55.56;100457.11;;;;-52
2019/08/16 16:14:15;;;;;;;3.93;2.01;;;;;;;22.53;55.55;100455.19;;;;-52
2019/08/16 16:17:15;;;;;;;6.01;2.06;;;;;;;22.53;55.51;100449.20;;;;-52
2019/08/16 16:20:15;;;;;;;5.11;1.91;;;;;;;22.53;55.48;100444.72;;;;-52
2019/08/16 16:23:15;;;;;;;4.30;2.15;;;;;;;22.52;55.43;100444.89;;;;-53
2019/08/16 16:26:15;;;;;;;3.96;1.95;;;;;;;22.53;55.47;100445.62;;;;-52
2019/08/16 16:29:15;;;;;;;3.27;2.05;;;;;;;22.52;55.49;100442.16;;;;-52
2019/08/16 16:32:15;;;;;;;3.70;2.08;;;;;;;22.51;55.49;100438.19;;;;-52
2019/08/16 16:35:15;;;;;;;5.69;1.93;;;;;;;22.51;55.45;100436.81;;;;-52
2019/08/16 16:38:15;;;;;;;4.29;1.92;;;;;;;22.50;55.50;100432.34;;;;-51
2019/08/16 16:41:15;;;;;;;4.25;1.94;;;;;;;22.51;55.43;100429.51;;;;-49
2019/08/16 16:44:15;;;;;;;5.35;1.99;;;;;;;22.53;55.47;100425.27;;;;-54
2019/08/16 16:47:15;;;;;;;4.19;2.17;;;;;;;22.54;55.49;100425.84;;;;-57
2019/08/16 16:50:15;;;;;;;4.01;1.91;;;;;;;22.55;55.51;100417.25;;;;-56
2019/08/16 16:53:15;;;;;;;4.08;1.87;;;;;;;22.55;55.45;100419.20;;;;-57
2019/08/16 16:56:15;;;;;;;3.72;1.91;;;;;;;22.56;55.45;100419.67;;;;-55
2019/08/16 16:59:15;;;;;;;3.18;1.83;;;;;;;22.56;55.55;100415.36;;;;-52